createdAt,value
2023-04-09T00:01:10.081Z,41.08
2023-04-09T00:03:38.482Z,39.13
2023-04-09T00:06:06.290Z,44.40
2023-04-09T00:08:33.387Z,36.67
2023-04-09T00:11:00.728Z,37.88
2023-04-09T00:13:38.750Z,37.03
2023-04-09T00:16:07.899Z,38.17
2023-04-09T00:18:34.976Z,40.08
2023-04-09T00:21:02.017Z,35.33
2023-04-09T00:23:29.141Z,43.17
2023-04-09T00:25:56.209Z,39.42
2023-04-09T00:28:23.193Z,39.92
2023-04-09T00:30:50.363Z,44.67
2023-04-09T00:33:17.267Z,41.50
2023-04-09T00:35:44.242Z,36.75
2023-04-09T00:38:11.258Z,38.83
2023-04-09T00:40:38.181Z,35.95
2023-04-09T00:43:05.725Z,39.78
2023-04-09T00:45:33.247Z,40.90
2023-04-09T00:48:00.409Z,41.83
2023-04-09T00:50:27.556Z,39.75
2023-04-09T00:52:54.607Z,35.60
2023-04-09T00:55:22.412Z,38.92
2023-04-09T00:57:49.854Z,38.05
2023-04-09T01:00:17.202Z,38.45
2023-04-09T01:02:44.585Z,36.13
2023-04-09T01:05:13.122Z,45.45
2023-04-09T01:08:46.583Z,36.05
2023-04-09T01:11:56.806Z,37.97
2023-04-09T01:17:34.930Z,41.35
2023-04-09T01:20:12.032Z,40.67
2023-04-09T01:23:19.626Z,38.53
2023-04-09T01:26:12.019Z,43.67
2023-04-09T01:28:54.047Z,38.00
2023-04-09T01:31:30.025Z,38.15
2023-04-09T01:33:57.770Z,38.35
2023-04-09T01:36:26.490Z,42.50
2023-04-09T01:38:56.007Z,39.78
2023-04-09T01:41:24.383Z,38.53
2023-04-09T01:43:52.613Z,38.53
2023-04-09T01:46:22.028Z,41.75
2023-04-09T01:48:50.564Z,42.15
2023-04-09T01:51:18.487Z,37.33
2023-04-09T01:53:45.683Z,39.38
2023-04-09T01:56:12.739Z,37.63
2023-04-09T01:58:40.920Z,44.50
2023-04-09T02:01:17.079Z,38.17
2023-04-09T02:03:54.815Z,35.67
2023-04-09T02:06:50.618Z,44.45
2023-04-09T02:09:20.669Z,38.70
2023-04-09T02:11:49.986Z,35.85
2023-04-09T02:14:18.719Z,33.60
2023-04-09T02:16:48.478Z,33.10
2023-04-09T02:19:15.686Z,33.00
2023-04-09T02:21:42.738Z,42.47
2023-04-09T02:24:09.971Z,36.72
2023-04-09T02:26:36.938Z,37.88
2023-04-09T02:29:03.983Z,39.63
2023-04-09T02:31:30.985Z,42.33
2023-04-09T02:33:58.034Z,35.95
2023-04-09T02:36:25.992Z,35.33
2023-04-09T02:38:53.009Z,32.22
2023-04-09T02:41:20.055Z,32.63
2023-04-09T02:43:47.042Z,35.35
2023-04-09T02:46:14.043Z,32.30
2023-04-09T02:48:41.053Z,37.78
2023-04-09T02:51:08.344Z,36.15
2023-04-09T02:53:35.373Z,36.70
2023-04-09T02:56:02.301Z,41.92
2023-04-09T02:58:29.237Z,36.83
2023-04-09T03:00:56.216Z,35.20
2023-04-09T03:03:23.342Z,30.05
2023-04-09T03:05:50.415Z,35.33
2023-04-09T03:08:17.408Z,37.30
2023-04-09T03:10:44.408Z,33.00
2023-04-09T03:13:11.388Z,30.98
2023-04-09T03:15:38.346Z,32.63
2023-04-09T03:18:05.436Z,30.08
2023-04-09T03:20:32.485Z,30.42
2023-04-09T03:22:59.463Z,30.50
2023-04-09T03:25:34.732Z,32.78
2023-04-09T03:28:10.440Z,33.25
2023-04-09T03:30:44.039Z,29.83
2023-04-09T03:33:11.544Z,31.52
2023-04-09T03:35:48.662Z,32.28
2023-04-09T03:38:18.384Z,30.80
2023-04-09T03:40:45.504Z,33.47
2023-04-09T03:43:12.442Z,35.00
2023-04-09T03:45:45.608Z,30.83
2023-04-09T03:48:21.636Z,31.77
2023-04-09T03:50:49.302Z,31.40
2023-04-09T03:53:23.566Z,35.15
2023-04-09T03:55:50.664Z,31.83
2023-04-09T03:58:23.662Z,38.88
2023-04-09T04:00:51.062Z,34.58
2023-04-09T04:03:32.543Z,31.83
2023-04-09T04:06:13.267Z,31.08
2023-04-09T04:09:00.960Z,34.22
2023-04-09T04:11:37.480Z,33.22
2023-04-09T04:14:04.474Z,34.53
2023-04-09T04:16:32.363Z,34.78
2023-04-09T04:19:00.112Z,33.10
2023-04-09T04:21:28.893Z,33.95
2023-04-09T04:24:01.061Z,31.80
2023-04-09T04:26:29.776Z,34.22
2023-04-09T04:28:56.988Z,30.30
2023-04-09T04:31:45.037Z,33.65
2023-04-09T04:34:13.617Z,31.40
2023-04-09T04:36:43.064Z,33.53
2023-04-09T04:39:10.192Z,35.25
2023-04-09T04:41:49.723Z,36.53
2023-04-09T04:44:21.564Z,38.83
2023-04-09T04:46:52.561Z,31.63
2023-04-09T04:49:19.570Z,34.17
2023-04-09T04:51:48.072Z,34.95
2023-04-09T04:54:16.456Z,32.53
2023-04-09T04:56:53.098Z,31.85
2023-04-09T04:59:32.262Z,29.60
2023-04-09T05:02:04.329Z,34.20
2023-04-09T05:04:36.846Z,33.75
2023-04-09T05:07:04.928Z,32.60
2023-04-09T05:09:31.892Z,35.42
2023-04-09T05:12:06.435Z,33.40
2023-04-09T05:14:34.808Z,37.50
2023-04-09T05:17:01.837Z,37.25
2023-04-09T05:19:39.521Z,31.75
2023-04-09T05:22:06.909Z,32.92
2023-04-09T05:24:34.767Z,30.15
2023-04-09T05:27:01.844Z,29.40
2023-04-09T05:29:29.558Z,29.13
2023-04-09T05:31:56.684Z,31.92
2023-04-09T05:34:31.706Z,30.63
2023-04-09T05:36:58.748Z,31.95
2023-04-09T05:39:26.182Z,26.92
2023-04-09T05:41:53.504Z,33.28
2023-04-09T05:44:32.086Z,32.22
2023-04-09T05:47:07.249Z,28.73
2023-04-09T05:49:41.798Z,28.33
2023-04-09T05:52:12.852Z,32.03
2023-04-09T05:54:39.946Z,29.48
2023-04-09T05:57:09.037Z,30.58
2023-04-09T05:59:38.759Z,30.98
2023-04-09T06:02:06.125Z,32.30
2023-04-09T06:04:33.815Z,31.92
2023-04-09T06:07:01.428Z,31.33
2023-04-09T06:09:28.439Z,33.03
2023-04-09T06:11:55.783Z,28.52
2023-04-09T06:14:22.760Z,31.35
2023-04-09T06:16:49.902Z,32.38
2023-04-09T06:19:17.812Z,26.85
2023-04-09T06:21:45.019Z,30.23
2023-04-09T06:24:12.312Z,28.50
2023-04-09T06:26:39.419Z,28.33
2023-04-09T06:29:09.744Z,27.70
2023-04-09T06:31:36.869Z,26.45
2023-04-09T06:34:04.147Z,34.85
2023-04-09T06:36:31.240Z,30.55
2023-04-09T06:39:01.104Z,31.73
2023-04-09T06:41:28.142Z,30.35
2023-04-09T06:43:55.308Z,29.80
2023-04-09T06:46:22.450Z,30.65
2023-04-09T06:48:49.730Z,27.73
2023-04-09T06:51:16.710Z,28.00
2023-04-09T06:53:43.819Z,28.77
2023-04-09T06:56:11.491Z,32.22
2023-04-09T06:58:38.446Z,31.67
2023-04-09T07:01:06.133Z,33.80
2023-04-09T07:03:33.476Z,31.67
2023-04-09T07:06:01.003Z,34.38
2023-04-09T07:08:28.703Z,37.35
2023-04-09T07:10:56.286Z,31.40
2023-04-09T07:13:26.328Z,39.15
2023-04-09T07:15:53.514Z,37.78
2023-04-09T07:18:20.851Z,30.38
2023-04-09T07:20:47.855Z,34.58
2023-04-09T07:23:14.959Z,35.13
2023-04-09T07:25:42.372Z,36.50
2023-04-09T07:28:09.686Z,32.38
2023-04-09T07:30:36.702Z,32.58
2023-04-09T07:33:04.119Z,33.45
2023-04-09T07:35:32.069Z,34.17
2023-04-09T07:37:59.169Z,35.20
2023-04-09T07:40:26.525Z,33.42
2023-04-09T07:42:55.855Z,35.85
2023-04-09T07:45:22.790Z,31.88
2023-04-09T07:47:49.898Z,30.17
2023-04-09T07:50:17.013Z,35.72
2023-04-09T07:52:44.410Z,33.15
2023-04-09T07:55:11.656Z,28.83
2023-04-09T07:57:38.773Z,31.63
2023-04-09T08:00:06.940Z,34.70
2023-04-09T08:02:40.977Z,30.92
2023-04-09T08:05:09.302Z,30.67
2023-04-09T08:07:36.968Z,30.27
2023-04-09T08:10:05.920Z,35.63
2023-04-09T08:12:34.263Z,31.08
2023-04-09T08:15:03.805Z,29.55
2023-04-09T08:17:31.070Z,32.35
2023-04-09T08:19:58.328Z,32.05
2023-04-09T08:22:25.580Z,29.58
2023-04-09T08:24:53.418Z,28.98
2023-04-09T08:27:21.447Z,30.65
2023-04-09T08:29:48.507Z,30.60
2023-04-09T08:32:15.799Z,25.60
2023-04-09T08:34:42.824Z,26.88
2023-04-09T08:37:09.935Z,26.88
2023-04-09T08:39:36.987Z,20.77
2023-04-09T08:42:07.237Z,23.13
2023-04-09T08:44:34.379Z,22.98
2023-04-09T08:47:02.711Z,22.88
2023-04-09T08:49:29.865Z,25.30
2023-04-09T08:51:57.027Z,23.05
2023-04-09T08:54:26.649Z,24.77
2023-04-09T08:56:53.826Z,21.08
2023-04-09T08:59:20.912Z,24.90
2023-04-09T09:01:53.668Z,22.50
2023-04-09T09:04:20.806Z,21.88
2023-04-09T09:06:48.013Z,23.83
2023-04-09T09:09:17.278Z,22.27
2023-04-09T09:11:47.063Z,21.27
2023-04-09T09:14:19.961Z,25.00
2023-04-09T09:16:56.217Z,23.95
2023-04-09T09:19:26.549Z,22.92
2023-04-09T09:21:57.589Z,23.58
2023-04-09T09:24:24.758Z,24.05
2023-04-09T09:26:54.526Z,21.48
2023-04-09T09:29:21.858Z,18.90
2023-04-09T09:31:51.948Z,23.98
2023-04-09T09:34:21.303Z,22.85
2023-04-09T09:36:48.818Z,21.25
2023-04-09T09:39:17.660Z,19.98
2023-04-09T09:41:47.260Z,21.90
2023-04-09T09:44:32.269Z,19.92
2023-04-09T09:46:59.530Z,21.80
2023-04-09T09:49:26.493Z,18.48
2023-04-09T09:51:57.644Z,20.88
2023-04-09T09:54:28.361Z,17.20
2023-04-09T09:57:02.099Z,15.93
2023-04-09T09:59:36.862Z,17.58
2023-04-09T10:02:18.954Z,14.97
2023-04-09T10:04:46.824Z,18.30
2023-04-09T10:07:16.092Z,19.88
2023-04-09T10:09:49.990Z,15.90
2023-04-09T10:12:18.225Z,16.67
2023-04-09T10:14:46.062Z,17.13
2023-04-09T10:17:13.299Z,13.35
2023-04-09T10:19:56.423Z,17.98
2023-04-09T10:22:27.287Z,15.52
2023-04-09T10:24:55.793Z,14.30
2023-04-09T10:27:22.854Z,15.65
2023-04-09T10:29:52.098Z,16.52
2023-04-09T10:32:26.514Z,14.27
2023-04-09T10:34:57.748Z,13.32
2023-04-09T10:37:27.186Z,15.63
2023-04-09T10:39:54.518Z,15.32
2023-04-09T10:42:31.894Z,16.55
2023-04-09T10:45:14.396Z,14.98
2023-04-09T10:47:43.475Z,16.45
2023-04-09T10:50:24.508Z,16.50
2023-04-09T10:52:57.451Z,13.30
2023-04-09T10:55:39.208Z,15.65
2023-04-09T10:58:12.731Z,17.85
2023-04-09T11:00:43.259Z,14.73
2023-04-09T11:03:27.834Z,13.98
2023-04-09T11:06:05.937Z,12.85
2023-04-09T11:08:34.195Z,13.77
2023-04-09T11:11:02.213Z,15.60
2023-04-09T11:13:31.715Z,13.48
2023-04-09T11:16:00.271Z,16.67
2023-04-09T11:18:30.051Z,10.73
2023-04-09T11:21:01.029Z,13.43
2023-04-09T11:23:28.901Z,14.25
2023-04-09T11:25:56.627Z,12.88
2023-04-09T11:28:24.305Z,13.77
2023-04-09T11:30:52.455Z,12.77
2023-04-09T11:33:20.576Z,15.13
2023-04-09T11:35:48.760Z,11.82
2023-04-09T11:38:16.177Z,10.80
2023-04-09T11:40:51.559Z,11.43
2023-04-09T11:43:20.911Z,11.80
2023-04-09T11:45:48.709Z,11.93
2023-04-09T11:48:21.670Z,11.07
2023-04-09T11:50:49.010Z,12.88
2023-04-09T11:53:23.867Z,10.65
2023-04-09T11:55:53.075Z,11.40
2023-04-09T11:58:24.621Z,12.13
2023-04-09T12:00:58.747Z,10.45
2023-04-09T12:03:33.504Z,9.63
2023-04-09T12:06:02.755Z,11.18
2023-04-09T12:08:31.175Z,12.20
2023-04-09T12:11:08.326Z,11.48
2023-04-09T12:13:35.326Z,11.68
2023-04-09T12:16:05.184Z,14.40
2023-04-09T12:18:36.502Z,9.85
2023-04-09T12:21:03.884Z,10.77
2023-04-09T12:23:34.061Z,12.05
2023-04-09T12:26:02.018Z,11.02
2023-04-09T12:28:29.518Z,11.75
2023-04-09T12:30:57.747Z,11.55
2023-04-09T12:33:25.071Z,10.32
2023-04-09T12:35:52.229Z,14.02
2023-04-09T12:38:19.342Z,10.55
2023-04-09T12:40:46.766Z,11.43
2023-04-09T12:43:13.770Z,10.15
2023-04-09T12:45:40.882Z,11.30
2023-04-09T12:48:07.945Z,12.27
2023-04-09T12:50:34.990Z,12.93
2023-04-09T12:53:02.024Z,11.07
2023-04-09T12:55:29.131Z,10.05
2023-04-09T12:57:56.145Z,11.55
2023-04-09T13:00:23.306Z,10.70
2023-04-09T13:02:52.786Z,10.68
2023-04-09T13:05:20.323Z,10.10
2023-04-09T13:07:47.699Z,12.57
2023-04-09T13:10:14.750Z,11.18
2023-04-09T13:12:41.843Z,11.70
2023-04-09T13:15:09.229Z,12.32
2023-04-09T13:17:36.213Z,10.63
2023-04-09T13:20:03.805Z,11.77
2023-04-09T13:22:31.041Z,10.57
2023-04-09T13:24:58.040Z,10.73
2023-04-09T13:27:25.154Z,12.73
2023-04-09T13:29:52.121Z,16.65
2023-04-09T13:32:21.208Z,12.20
2023-04-09T13:34:48.538Z,12.90
2023-04-09T13:37:15.854Z,14.75
2023-04-09T13:39:44.877Z,13.50
2023-04-09T13:42:14.151Z,12.70
2023-04-09T13:44:44.523Z,10.02
2023-04-09T13:47:16.907Z,11.82
2023-04-09T13:49:44.041Z,10.25
2023-04-09T13:52:11.778Z,13.60
2023-04-09T13:54:38.838Z,13.00
2023-04-09T13:57:05.977Z,11.70
2023-04-09T13:59:32.985Z,12.07
2023-04-09T14:02:00.472Z,12.98
2023-04-09T14:04:27.859Z,11.70
2023-04-09T14:06:55.094Z,10.57
2023-04-09T14:09:22.203Z,11.13
2023-04-09T14:11:49.667Z,10.55
2023-04-09T14:14:17.669Z,12.60
2023-04-09T14:16:44.681Z,10.10
2023-04-09T14:19:11.712Z,7.90
2023-04-09T14:21:40.313Z,15.20
2023-04-09T14:24:07.732Z,10.55
2023-04-09T14:26:34.736Z,11.32
2023-04-09T14:29:01.966Z,11.85
2023-04-09T14:31:29.050Z,10.43
2023-04-09T14:33:56.748Z,14.15
2023-04-09T14:36:23.706Z,11.82
2023-04-09T14:38:51.258Z,9.43
2023-04-09T14:41:18.690Z,11.02
2023-04-09T14:43:45.932Z,11.85
2023-04-09T14:46:13.116Z,9.68
2023-04-09T14:48:40.575Z,13.57
2023-04-09T14:51:10.886Z,10.50
2023-04-09T14:53:38.757Z,11.30
2023-04-09T14:56:06.692Z,9.18
2023-04-09T14:58:33.696Z,8.63
2023-04-09T15:01:00.905Z,9.30
2023-04-09T15:03:28.237Z,14.25
2023-04-09T15:05:55.513Z,11.25
2023-04-09T15:08:23.632Z,10.55
2023-04-09T15:10:51.336Z,9.40
2023-04-09T15:13:18.401Z,8.10
2023-04-09T15:15:45.474Z,12.52
2023-04-09T15:18:12.546Z,9.77
2023-04-09T15:20:40.073Z,9.45
2023-04-09T15:23:07.182Z,7.30
2023-04-09T15:25:34.180Z,7.55
2023-04-09T15:28:03.199Z,8.57
2023-04-09T15:30:30.241Z,10.10
2023-04-09T15:32:57.855Z,7.55
2023-04-09T15:35:26.616Z,7.63
2023-04-09T15:37:53.956Z,9.43
2023-04-09T15:40:21.239Z,7.45
2023-04-09T15:42:48.258Z,7.63
2023-04-09T15:45:16.418Z,9.02
2023-04-09T15:47:47.342Z,7.85
2023-04-09T15:50:14.948Z,6.93
2023-04-09T15:52:42.040Z,9.95
2023-04-09T15:55:09.889Z,7.53
2023-04-09T15:57:38.552Z,7.25
2023-04-09T16:00:10.572Z,8.45
2023-04-09T16:02:39.002Z,8.32
2023-04-09T16:05:07.226Z,8.55
2023-04-09T16:07:34.775Z,9.48
2023-04-09T16:10:02.532Z,9.55
2023-04-09T16:12:29.559Z,8.80
2023-04-09T16:14:56.522Z,7.57
2023-04-09T16:17:24.032Z,9.55
2023-04-09T16:19:51.044Z,9.32
2023-04-09T16:22:17.976Z,7.85
2023-04-09T16:24:44.942Z,8.70
2023-04-09T16:27:13.597Z,9.50
2023-04-09T16:29:40.671Z,8.90
2023-04-09T16:32:07.753Z,7.82
2023-04-09T16:34:34.951Z,8.07
2023-04-09T16:37:01.990Z,6.43
2023-04-09T16:39:29.550Z,8.95
2023-04-09T16:41:58.369Z,8.52
2023-04-09T16:44:26.231Z,9.43
2023-04-09T16:46:53.214Z,7.72
2023-04-09T16:49:20.358Z,9.27
2023-04-09T16:51:47.347Z,9.30
2023-04-09T16:54:14.428Z,8.15
2023-04-09T16:56:41.511Z,8.40
2023-04-09T16:59:08.508Z,10.02
2023-04-09T17:01:35.983Z,10.07
2023-04-09T17:04:03.424Z,8.23
2023-04-09T17:06:30.892Z,7.90
2023-04-09T17:08:57.881Z,8.70
2023-04-09T17:11:25.134Z,9.77
2023-04-09T17:13:52.181Z,7.82
2023-04-09T17:16:19.128Z,8.52
2023-04-09T17:18:47.101Z,7.15
2023-04-09T17:21:14.156Z,8.90
2023-04-09T17:23:42.711Z,8.10
2023-04-09T17:26:09.696Z,9.20
2023-04-09T17:28:36.747Z,8.02
2023-04-09T17:31:03.898Z,9.07
2023-04-09T17:33:30.977Z,9.25
2023-04-09T17:35:58.007Z,9.93
2023-04-09T17:38:26.904Z,7.88
2023-04-09T17:40:54.132Z,8.38
2023-04-09T17:43:21.156Z,8.88
2023-04-09T17:45:49.290Z,8.50
2023-04-09T17:48:16.571Z,10.60
2023-04-09T17:50:43.817Z,8.20
2023-04-09T17:53:11.563Z,8.98
2023-04-09T17:55:38.691Z,9.02
2023-04-09T17:58:05.780Z,8.07
2023-04-09T18:00:34.367Z,8.95
2023-04-09T18:03:01.825Z,9.85
2023-04-09T18:05:29.923Z,8.73
2023-04-09T18:07:57.336Z,11.38
2023-04-09T18:10:24.351Z,12.02
2023-04-09T18:12:51.877Z,10.90
2023-04-09T18:15:19.312Z,9.25
2023-04-09T18:17:46.502Z,8.38
2023-04-09T18:20:15.387Z,7.80
2023-04-09T18:22:43.924Z,7.93
2023-04-09T18:25:11.506Z,7.95
2023-04-09T18:27:38.709Z,7.22
2023-04-09T18:30:06.764Z,6.57
2023-04-09T18:32:33.752Z,7.63
2023-04-09T18:35:00.973Z,8.48
2023-04-09T18:37:28.120Z,5.57
2023-04-09T18:39:55.367Z,9.00
2023-04-09T18:42:22.594Z,6.93
2023-04-09T18:44:49.744Z,5.63
2023-04-09T18:47:16.693Z,6.65
2023-04-09T18:49:43.713Z,8.00
2023-04-09T18:52:10.821Z,9.60
2023-04-09T18:54:39.001Z,11.13
2023-04-09T18:57:06.481Z,5.88
2023-04-09T18:59:34.937Z,7.32
2023-04-09T19:02:05.896Z,8.63
2023-04-09T19:04:39.699Z,6.70
2023-04-09T19:07:07.602Z,8.00
2023-04-09T19:09:34.853Z,6.07
2023-04-09T19:12:02.264Z,5.72
2023-04-09T19:14:29.480Z,7.15
2023-04-09T19:16:57.125Z,6.32
2023-04-09T19:19:24.335Z,6.85
2023-04-09T19:21:51.338Z,6.05
2023-04-09T19:24:18.413Z,15.82
2023-04-09T19:26:45.467Z,7.10
2023-04-09T19:29:12.465Z,6.45
2023-04-09T19:31:41.456Z,6.18
2023-04-09T19:34:10.906Z,6.05
2023-04-09T19:36:37.996Z,5.30
2023-04-09T19:39:05.968Z,8.68
2023-04-09T19:41:33.135Z,4.93
2023-04-09T19:44:01.405Z,4.15
2023-04-09T19:46:28.837Z,8.77
2023-04-09T19:48:56.749Z,8.80
2023-04-09T19:51:23.847Z,5.40
2023-04-09T19:53:51.166Z,11.52
2023-04-09T19:56:19.133Z,6.72
2023-04-09T19:58:46.625Z,8.18
2023-04-09T20:01:13.931Z,7.25
2023-04-09T20:03:41.583Z,9.25
2023-04-09T20:06:10.308Z,6.78
2023-04-09T20:08:38.251Z,6.15
2023-04-09T20:11:07.028Z,5.95
2023-04-09T20:13:34.371Z,7.80
2023-04-09T20:16:01.729Z,6.95
2023-04-09T20:18:28.947Z,7.20
2023-04-09T20:20:56.180Z,6.00
2023-04-09T20:23:23.317Z,7.93
2023-04-09T20:25:56.922Z,7.35
2023-04-09T20:28:24.185Z,5.43
2023-04-09T20:30:51.298Z,5.57
2023-04-09T20:33:18.765Z,7.30
2023-04-09T20:35:45.953Z,5.88
2023-04-09T20:38:13.119Z,6.03
2023-04-09T20:40:40.556Z,8.10
2023-04-09T20:43:07.772Z,6.55
2023-04-09T20:45:35.031Z,9.45
2023-04-09T20:48:02.447Z,7.18
2023-04-09T20:50:31.139Z,8.63
2023-04-09T20:52:59.006Z,8.93
2023-04-09T20:55:26.565Z,7.78
2023-04-09T20:57:58.476Z,5.78
2023-04-09T21:00:25.702Z,8.90
2023-04-09T21:02:53.227Z,8.73
2023-04-09T21:05:23.930Z,7.70
2023-04-09T21:07:53.195Z,8.93
2023-04-09T21:10:21.019Z,9.27
2023-04-09T21:12:48.355Z,9.10
2023-04-09T21:15:16.028Z,9.45
2023-04-09T21:17:43.230Z,7.43
2023-04-09T21:20:11.308Z,10.27
2023-04-09T21:22:38.522Z,8.40
2023-04-09T21:25:06.491Z,8.57
2023-04-09T21:27:33.760Z,9.40
2023-04-09T21:30:00.867Z,11.10
2023-04-09T21:32:28.127Z,9.57
2023-04-09T21:34:55.509Z,10.27
2023-04-09T21:37:22.671Z,7.60
2023-04-09T21:39:50.094Z,11.35
2023-04-09T21:42:17.155Z,9.45
2023-04-09T21:44:44.471Z,11.40
2023-04-09T21:47:12.327Z,8.07
2023-04-09T21:49:40.686Z,10.75
2023-04-09T21:52:14.507Z,7.05
2023-04-09T21:54:43.294Z,6.30
2023-04-09T21:57:11.341Z,6.28
2023-04-09T21:59:41.178Z,9.55
2023-04-09T22:02:09.772Z,9.55
2023-04-09T22:04:37.527Z,9.23
2023-04-09T22:07:04.874Z,7.25
2023-04-09T22:09:32.066Z,7.60
2023-04-09T22:11:59.837Z,6.47
2023-04-09T22:14:29.620Z,10.88
2023-04-09T22:17:01.731Z,7.45
2023-04-09T22:19:31.792Z,7.63
2023-04-09T22:21:59.103Z,7.65
2023-04-09T22:24:30.445Z,9.88
2023-04-09T22:27:01.756Z,10.32
2023-04-09T22:29:29.564Z,8.25
2023-04-09T22:31:56.888Z,9.23
2023-04-09T22:34:24.342Z,10.07
2023-04-09T22:36:51.474Z,12.25
2023-04-09T22:39:18.799Z,9.23
2023-04-09T22:41:46.050Z,11.65
2023-04-09T22:44:13.175Z,9.10
2023-04-09T22:46:40.274Z,9.13
2023-04-09T22:49:08.198Z,8.45
2023-04-09T22:51:35.401Z,11.38
2023-04-09T22:54:02.732Z,11.02
2023-04-09T22:56:33.580Z,13.57
2023-04-09T22:59:00.783Z,10.68
2023-04-09T23:01:28.301Z,11.98
2023-04-09T23:03:56.111Z,14.10
2023-04-09T23:06:25.636Z,13.48
2023-04-09T23:08:53.083Z,15.00
2023-04-09T23:11:21.294Z,13.23
2023-04-09T23:13:48.461Z,15.15
2023-04-09T23:16:15.681Z,14.48
2023-04-09T23:18:42.919Z,15.48
2023-04-09T23:21:10.966Z,17.40
2023-04-09T23:23:38.943Z,15.93
2023-04-09T23:26:06.714Z,18.90
2023-04-09T23:28:33.788Z,16.55
2023-04-09T23:31:01.091Z,17.77
2023-04-09T23:33:28.265Z,21.67
2023-04-09T23:35:55.466Z,17.92
2023-04-09T23:38:22.591Z,19.95
2023-04-09T23:40:49.870Z,20.40
2023-04-09T23:43:16.990Z,21.77
2023-04-09T23:45:44.410Z,26.13
2023-04-09T23:48:12.514Z,21.05
2023-04-09T23:50:41.343Z,22.17
2023-04-09T23:53:08.911Z,21.85
2023-04-09T23:55:41.116Z,23.88
2023-04-09T23:58:08.492Z,19.80
